createdAt,value
2022-12-11T00:00:39.979Z,21.90
2022-12-11T00:03:11.383Z,20.60
2022-12-11T00:05:42.894Z,28.85
2022-12-11T00:08:10.186Z,23.48
2022-12-11T00:10:38.025Z,23.45
2022-12-11T00:13:05.611Z,28.70
2022-12-11T00:15:33.418Z,22.50
2022-12-11T00:18:00.425Z,20.88
2022-12-11T00:20:27.402Z,21.00
2022-12-11T00:22:54.375Z,19.80
2022-12-11T00:25:21.404Z,24.88
2022-12-11T00:27:48.457Z,22.63
2022-12-11T00:30:15.399Z,22.25
2022-12-11T00:32:43.450Z,22.90
2022-12-11T00:35:11.371Z,20.98
2022-12-11T00:37:38.509Z,18.55
2022-12-11T00:43:05.676Z,15.10
2022-12-11T00:45:40.925Z,18.83
2022-12-11T00:48:10.626Z,15.98
2022-12-11T00:50:38.133Z,19.20
2022-12-11T00:53:06.347Z,19.48
2022-12-11T00:55:38.502Z,19.00
2022-12-11T00:58:06.055Z,17.33
2022-12-11T01:00:33.955Z,20.52
2022-12-11T01:03:00.993Z,23.45
2022-12-11T01:05:28.177Z,15.88
2022-12-11T01:07:55.157Z,30.23
2022-12-11T01:10:25.170Z,23.48
2022-12-11T01:12:53.301Z,22.33
2022-12-11T01:15:23.143Z,18.25
2022-12-11T01:17:51.594Z,22.40
2022-12-11T01:20:20.199Z,23.83
2022-12-11T01:22:47.412Z,20.92
2022-12-11T01:25:15.016Z,22.02
2022-12-11T01:27:41.987Z,25.40
2022-12-11T01:30:09.716Z,27.58
2022-12-11T01:32:36.782Z,23.65
2022-12-11T01:35:05.638Z,19.10
2022-12-11T01:37:32.715Z,16.67
2022-12-11T01:40:00.989Z,25.55
2022-12-11T01:42:29.684Z,23.67
2022-12-11T01:45:34.640Z,17.85
2022-12-11T01:48:12.603Z,17.17
2022-12-11T01:51:05.920Z,17.90
2022-12-11T01:53:43.608Z,18.23
2022-12-11T01:56:11.600Z,18.83
2022-12-11T01:58:51.738Z,19.23
2022-12-11T02:01:44.828Z,22.80
2022-12-11T02:04:12.366Z,19.00
2022-12-11T02:06:42.164Z,21.00
2022-12-11T02:09:13.655Z,23.95
2022-12-11T02:11:46.945Z,20.48
2022-12-11T02:14:37.522Z,17.15
2022-12-11T02:17:29.638Z,17.58
2022-12-11T02:19:59.476Z,23.30
2022-12-11T02:23:03.437Z,21.67
2022-12-11T02:26:08.123Z,21.50
2022-12-11T02:28:59.712Z,18.75
2022-12-11T02:31:35.618Z,17.17
2022-12-11T02:34:16.225Z,23.17
2022-12-11T02:36:49.050Z,16.52
2022-12-11T02:39:17.521Z,18.13
2022-12-11T02:41:50.172Z,19.27
2022-12-11T02:44:21.769Z,15.13
2022-12-11T02:46:49.463Z,22.20
2022-12-11T02:49:17.697Z,16.27
2022-12-11T02:51:45.172Z,20.35
2022-12-11T02:54:27.527Z,17.48
2022-12-11T02:57:00.699Z,16.52
2022-12-11T02:59:35.583Z,20.02
2022-12-11T03:02:04.550Z,19.13
2022-12-11T03:04:34.359Z,16.77
2022-12-11T03:07:12.470Z,16.85
2022-12-11T03:09:41.554Z,13.55
2022-12-11T03:12:11.252Z,16.75
2022-12-11T03:14:40.677Z,14.45
2022-12-11T03:17:22.964Z,18.60
2022-12-11T03:19:52.904Z,18.83
2022-12-11T03:22:43.801Z,17.92
2022-12-11T03:25:17.548Z,21.42
2022-12-11T03:28:03.610Z,13.35
2022-12-11T03:30:34.540Z,16.35
2022-12-11T03:33:07.007Z,18.48
2022-12-11T03:35:36.870Z,13.63
2022-12-11T03:38:10.018Z,16.23
2022-12-11T03:40:38.974Z,13.32
2022-12-11T03:43:07.340Z,13.07
2022-12-11T03:45:36.046Z,15.15
2022-12-11T03:48:03.559Z,10.70
2022-12-11T03:50:32.795Z,12.82
2022-12-11T03:53:01.964Z,12.07
2022-12-11T03:55:30.956Z,12.68
2022-12-11T03:57:57.917Z,16.25
2022-12-11T04:00:25.337Z,13.07
2022-12-11T04:03:15.442Z,12.88
2022-12-11T04:05:51.076Z,11.95
2022-12-11T04:08:21.072Z,14.32
2022-12-11T04:10:49.161Z,11.38
2022-12-11T04:13:16.210Z,14.07
2022-12-11T04:15:43.285Z,17.30
2022-12-11T04:18:29.698Z,12.80
2022-12-11T04:21:15.848Z,14.73
2022-12-11T04:24:01.492Z,13.85
2022-12-11T04:26:28.571Z,13.35
2022-12-11T04:28:55.658Z,11.60
2022-12-11T04:31:23.273Z,18.55
2022-12-11T04:33:50.550Z,18.58
2022-12-11T04:36:17.574Z,20.35
2022-12-11T04:38:44.553Z,20.00
2022-12-11T04:41:14.277Z,15.05
2022-12-11T04:43:41.349Z,17.55
2022-12-11T04:46:12.374Z,14.85
2022-12-11T04:48:40.194Z,15.55
2022-12-11T04:51:08.184Z,15.30
2022-12-11T04:53:36.354Z,15.52
2022-12-11T04:56:06.773Z,18.52
2022-12-11T04:58:33.979Z,15.10
2022-12-11T05:01:00.926Z,15.13
2022-12-11T05:03:27.905Z,19.95
2022-12-11T05:05:54.842Z,14.45
2022-12-11T05:08:22.120Z,18.55
2022-12-11T05:10:57.860Z,16.77
2022-12-11T05:13:25.072Z,16.55
2022-12-11T05:15:52.109Z,18.13
2022-12-11T05:18:19.144Z,17.65
2022-12-11T05:20:54.649Z,19.35
2022-12-11T05:23:21.584Z,18.85
2022-12-11T05:25:59.886Z,15.70
2022-12-11T05:28:28.565Z,19.33
2022-12-11T05:31:01.238Z,19.02
2022-12-11T05:33:29.048Z,16.15
2022-12-11T05:35:56.691Z,14.93
2022-12-11T05:38:24.246Z,16.08
2022-12-11T05:41:02.093Z,12.70
2022-12-11T05:43:32.280Z,15.82
2022-12-11T05:46:09.493Z,16.98
2022-12-11T05:48:37.841Z,16.50
2022-12-11T05:51:06.348Z,13.98
2022-12-11T05:53:34.055Z,13.52
2022-12-11T05:56:11.021Z,11.77
2022-12-11T05:58:38.122Z,13.45
2022-12-11T06:01:14.246Z,11.88
2022-12-11T06:03:41.311Z,11.82
2022-12-11T06:06:08.385Z,13.45
2022-12-11T06:08:35.709Z,15.35
2022-12-11T06:11:03.361Z,14.25
2022-12-11T06:13:30.367Z,11.88
2022-12-11T06:16:06.160Z,13.43
2022-12-11T06:18:40.575Z,11.27
2022-12-11T06:21:24.836Z,13.60
2022-12-11T06:23:53.733Z,12.10
2022-12-11T06:26:22.088Z,11.25
2022-12-11T06:28:49.970Z,13.15
2022-12-11T06:31:17.839Z,14.55
2022-12-11T06:33:45.404Z,9.25
2022-12-11T06:36:20.619Z,10.73
2022-12-11T06:38:48.058Z,10.55
2022-12-11T06:41:15.214Z,11.48
2022-12-11T06:43:43.385Z,12.43
2022-12-11T06:46:15.576Z,12.90
2022-12-11T06:48:43.859Z,9.43
2022-12-11T06:51:19.072Z,13.02
2022-12-11T06:53:51.100Z,12.52
2022-12-11T06:56:18.079Z,8.07
2022-12-11T06:58:45.026Z,14.30
2022-12-11T07:01:27.546Z,8.85
2022-12-11T07:03:56.198Z,11.55
2022-12-11T07:06:24.445Z,15.52
2022-12-11T07:08:51.643Z,10.43
2022-12-11T07:11:20.474Z,10.90
2022-12-11T07:13:47.878Z,11.90
2022-12-11T07:16:16.665Z,11.13
2022-12-11T07:18:48.092Z,10.35
2022-12-11T07:21:15.148Z,7.95
2022-12-11T07:23:42.197Z,8.70
2022-12-11T07:26:12.521Z,10.75
2022-12-11T07:28:40.696Z,8.40
2022-12-11T07:31:16.745Z,9.75
2022-12-11T07:33:43.899Z,10.98
2022-12-11T07:36:12.839Z,12.60
2022-12-11T07:38:40.458Z,10.15
2022-12-11T07:41:11.033Z,8.77
2022-12-11T07:43:38.578Z,8.65
2022-12-11T07:46:08.073Z,8.88
2022-12-11T07:48:39.917Z,10.23
2022-12-11T07:51:28.140Z,6.85
2022-12-11T07:54:02.609Z,7.75
2022-12-11T07:56:30.745Z,6.00
2022-12-11T07:59:01.271Z,10.70
2022-12-11T08:01:30.133Z,9.30
2022-12-11T08:03:58.070Z,7.35
2022-12-11T08:06:28.817Z,11.90
2022-12-11T08:08:56.997Z,7.72
2022-12-11T08:11:24.158Z,10.80
2022-12-11T08:13:51.295Z,7.45
2022-12-11T08:16:19.299Z,13.05
2022-12-11T08:18:48.074Z,9.70
2022-12-11T08:21:16.842Z,12.85
2022-12-11T08:23:44.386Z,15.15
2022-12-11T08:26:23.430Z,11.80
2022-12-11T08:28:50.487Z,10.60
2022-12-11T08:31:18.540Z,9.55
2022-12-11T08:33:46.279Z,8.63
2022-12-11T08:36:16.409Z,12.18
2022-12-11T08:38:44.909Z,8.60
2022-12-11T08:41:17.849Z,9.90
2022-12-11T08:43:45.115Z,12.75
2022-12-11T08:46:13.774Z,8.13
2022-12-11T08:48:42.449Z,9.10
2022-12-11T08:51:13.441Z,9.82
2022-12-11T08:53:40.625Z,9.23
2022-12-11T08:56:10.680Z,8.15
2022-12-11T08:58:38.286Z,9.80
2022-12-11T09:01:10.751Z,11.45
2022-12-11T09:03:38.343Z,8.85
2022-12-11T09:06:11.042Z,11.70
2022-12-11T09:08:38.315Z,9.85
2022-12-11T09:11:10.602Z,9.85
2022-12-11T09:13:38.294Z,9.00
2022-12-11T09:16:07.721Z,8.00
2022-12-11T09:18:34.817Z,9.43
2022-12-11T09:21:02.777Z,6.30
2022-12-11T09:23:30.414Z,7.22
2022-12-11T09:25:58.756Z,6.53
2022-12-11T09:28:26.245Z,6.65
2022-12-11T09:30:53.223Z,8.20
2022-12-11T09:33:20.445Z,8.68
2022-12-11T09:35:56.635Z,8.20
2022-12-11T09:38:23.612Z,21.02
2022-12-11T09:40:50.587Z,13.55
2022-12-11T09:43:31.976Z,7.30
2022-12-11T09:46:03.296Z,8.18
2022-12-11T09:48:33.857Z,5.95
2022-12-11T09:51:05.633Z,7.63
2022-12-11T09:53:37.227Z,6.07
2022-12-11T09:56:21.745Z,9.00
2022-12-11T09:59:13.316Z,8.05
2022-12-11T10:01:41.097Z,6.20
2022-12-11T10:04:10.862Z,7.60
2022-12-11T10:06:47.775Z,6.28
2022-12-11T10:09:28.647Z,7.10
2022-12-11T10:12:20.826Z,7.30
2022-12-11T10:14:53.895Z,7.03
2022-12-11T10:17:29.865Z,8.82
2022-12-11T10:20:15.691Z,7.60
2022-12-11T10:22:43.549Z,8.30
2022-12-11T10:25:28.837Z,8.85
2022-12-11T10:27:56.477Z,8.38
2022-12-11T10:30:25.031Z,7.22
2022-12-11T10:33:06.771Z,7.53
2022-12-11T10:35:42.505Z,10.13
2022-12-11T10:38:21.272Z,10.20
2022-12-11T10:40:53.348Z,10.73
2022-12-11T10:43:20.684Z,7.10
2022-12-11T10:45:52.873Z,6.32
2022-12-11T10:48:20.320Z,9.10
2022-12-11T10:51:01.112Z,7.93
2022-12-11T10:53:29.362Z,8.30
2022-12-11T10:55:58.695Z,9.75
2022-12-11T10:58:29.108Z,10.57
2022-12-11T11:01:14.288Z,7.10
2022-12-11T11:04:01.026Z,8.35
2022-12-11T11:06:28.169Z,8.77
2022-12-11T11:08:58.560Z,8.60
2022-12-11T11:11:35.295Z,6.93
2022-12-11T11:14:18.261Z,8.55
2022-12-11T11:16:48.904Z,7.13
2022-12-11T11:19:25.963Z,8.88
2022-12-11T11:22:03.111Z,8.02
2022-12-11T11:24:44.402Z,9.85
2022-12-11T11:27:46.614Z,9.30
2022-12-11T11:30:27.130Z,7.45
2022-12-11T11:33:01.651Z,5.35
2022-12-11T11:35:30.953Z,6.38
2022-12-11T11:38:09.624Z,6.65
2022-12-11T11:40:53.464Z,8.52
2022-12-11T11:43:44.686Z,7.20
2022-12-11T11:46:36.880Z,6.55
2022-12-11T11:49:21.399Z,5.85
2022-12-11T11:52:12.006Z,6.68
2022-12-11T11:55:21.482Z,4.30
2022-12-11T11:58:03.573Z,6.05
2022-12-11T12:00:33.817Z,5.03
2022-12-11T12:03:09.501Z,5.60
2022-12-11T12:05:55.612Z,4.32
2022-12-11T12:08:45.633Z,6.90
2022-12-11T12:11:18.431Z,6.68
2022-12-11T12:14:02.159Z,5.05
2022-12-11T12:16:52.579Z,3.95
2022-12-11T12:19:41.093Z,6.97
2022-12-11T12:22:28.222Z,5.63
2022-12-11T12:25:04.220Z,6.47
2022-12-11T12:28:22.017Z,5.22
2022-12-11T12:30:57.964Z,5.18
2022-12-11T12:33:43.301Z,4.18
2022-12-11T12:36:16.353Z,4.78
2022-12-11T12:38:48.816Z,4.97
2022-12-11T12:41:24.890Z,5.93
2022-12-11T12:44:18.775Z,6.35
2022-12-11T12:47:13.631Z,7.57
2022-12-11T12:49:43.465Z,5.05
2022-12-11T12:52:31.812Z,5.55
2022-12-11T12:55:29.244Z,5.05
2022-12-11T12:58:06.109Z,5.85
2022-12-11T13:00:42.669Z,5.30
2022-12-11T13:03:27.992Z,5.50
2022-12-11T13:06:09.856Z,5.28
2022-12-11T13:08:48.525Z,6.65
2022-12-11T13:11:18.851Z,9.02
2022-12-11T13:14:03.806Z,5.35
2022-12-11T13:16:42.612Z,3.92
2022-12-11T13:19:27.654Z,5.25
2022-12-11T13:22:12.889Z,7.70
2022-12-11T13:24:52.278Z,6.95
2022-12-11T13:27:44.056Z,7.97
2022-12-11T13:30:21.014Z,6.78
2022-12-11T13:33:05.169Z,7.82
2022-12-11T13:35:34.207Z,6.75
2022-12-11T13:38:20.438Z,6.53
2022-12-11T13:40:55.395Z,8.43
2022-12-11T13:43:30.576Z,7.68
2022-12-11T13:46:07.614Z,7.78
2022-12-11T13:48:39.629Z,9.30
2022-12-11T13:51:07.606Z,8.32
2022-12-11T13:53:35.031Z,10.30
2022-12-11T13:56:05.782Z,7.10
2022-12-11T13:58:39.042Z,10.13
2022-12-11T14:01:11.832Z,6.43
2022-12-11T14:03:59.437Z,6.18
2022-12-11T14:06:29.428Z,7.70
2022-12-11T14:08:59.630Z,5.53
2022-12-11T14:11:37.951Z,5.35
2022-12-11T14:14:28.538Z,8.73
2022-12-11T14:16:55.831Z,7.50
2022-12-11T14:19:25.070Z,6.60
2022-12-11T14:22:19.555Z,10.25
2022-12-11T14:24:52.051Z,21.42
2022-12-11T14:27:20.443Z,6.95
2022-12-11T14:29:48.622Z,6.28
2022-12-11T14:32:36.779Z,6.20
2022-12-11T14:35:11.227Z,6.57
2022-12-11T14:37:39.628Z,5.72
2022-12-11T14:40:16.392Z,4.88
2022-12-11T14:43:08.180Z,7.22
2022-12-11T14:45:38.724Z,6.47
2022-12-11T14:48:15.178Z,4.28
2022-12-11T14:50:48.826Z,7.63
2022-12-11T14:53:38.610Z,6.10
2022-12-11T14:56:08.428Z,6.25
2022-12-11T14:58:46.157Z,5.22
2022-12-11T15:01:25.059Z,5.15
2022-12-11T15:04:07.576Z,6.32
2022-12-11T15:06:44.185Z,4.45
2022-12-11T15:09:41.816Z,5.32
2022-12-11T15:12:15.407Z,5.63
2022-12-11T15:15:04.090Z,6.45
2022-12-11T15:17:31.315Z,6.78
2022-12-11T15:20:10.422Z,5.22
2022-12-11T15:22:38.381Z,8.55
2022-12-11T15:25:06.469Z,6.63
2022-12-11T15:27:37.290Z,4.18
2022-12-11T15:30:27.126Z,4.63
2022-12-11T15:33:09.951Z,4.18
2022-12-11T15:35:39.518Z,6.32
2022-12-11T15:38:07.070Z,5.45
2022-12-11T15:40:34.329Z,6.03
2022-12-11T15:43:03.591Z,5.72
2022-12-11T15:45:31.148Z,4.97
2022-12-11T15:47:59.699Z,6.15
2022-12-11T15:50:29.246Z,8.23
2022-12-11T15:52:58.014Z,4.20
2022-12-11T15:55:30.142Z,8.10
2022-12-11T15:58:00.676Z,7.40
2022-12-11T16:00:28.678Z,9.57
2022-12-11T16:02:57.317Z,6.28
2022-12-11T16:05:26.190Z,6.00
2022-12-11T16:07:54.885Z,6.70
2022-12-11T16:10:22.782Z,8.63
2022-12-11T16:12:50.573Z,5.68
2022-12-11T16:15:23.481Z,9.02
2022-12-11T16:17:59.429Z,9.23
2022-12-11T16:20:27.264Z,7.80
2022-12-11T16:22:54.795Z,8.40
2022-12-11T16:25:22.490Z,7.13
2022-12-11T16:27:49.904Z,7.75
2022-12-11T16:30:17.274Z,8.25
2022-12-11T16:32:44.541Z,10.32
2022-12-11T16:35:12.121Z,8.38
2022-12-11T16:37:39.761Z,9.60
2022-12-11T16:40:08.486Z,6.88
2022-12-11T16:42:35.919Z,7.43
2022-12-11T16:45:09.531Z,9.85
2022-12-11T16:47:37.155Z,9.00
2022-12-11T16:50:05.044Z,6.82
2022-12-11T16:52:33.516Z,6.30
2022-12-11T16:55:00.687Z,13.50
2022-12-11T16:57:28.650Z,8.25
2022-12-11T16:59:56.096Z,9.57
2022-12-11T17:02:23.719Z,11.20
2022-12-11T17:04:53.991Z,10.98
2022-12-11T17:07:21.755Z,10.35
2022-12-11T17:09:49.559Z,13.32
2022-12-11T17:12:16.738Z,10.57
2022-12-11T17:14:44.244Z,11.02
2022-12-11T17:17:11.378Z,9.85
2022-12-11T17:19:38.749Z,12.57
2022-12-11T17:22:06.295Z,12.52
2022-12-11T17:24:33.771Z,8.50
2022-12-11T17:27:01.570Z,11.88
2022-12-11T17:29:28.932Z,8.85
2022-12-11T17:31:56.193Z,10.57
2022-12-11T17:34:23.218Z,7.75
2022-12-11T17:36:52.422Z,12.13
2022-12-11T17:39:20.113Z,8.10
2022-12-11T17:41:47.532Z,10.00
2022-12-11T17:44:15.118Z,12.27
2022-12-11T17:46:43.464Z,10.07
2022-12-11T17:49:10.882Z,14.77
2022-12-11T17:51:38.148Z,9.02
2022-12-11T17:54:05.497Z,11.88
2022-12-11T17:56:35.160Z,8.52
2022-12-11T17:59:03.657Z,10.07
2022-12-11T18:01:30.993Z,20.02
2022-12-11T18:04:02.336Z,12.85
2022-12-11T18:06:30.669Z,9.20
2022-12-11T18:08:58.705Z,10.00
2022-12-11T18:11:26.545Z,11.80
2022-12-11T18:13:54.291Z,9.15
2022-12-11T18:16:26.989Z,9.25
2022-12-11T18:18:54.904Z,10.85
2022-12-11T18:21:26.244Z,9.00
2022-12-11T18:23:54.377Z,10.73
2022-12-11T18:26:22.865Z,12.18
2022-12-11T18:28:51.496Z,11.85
2022-12-11T18:31:20.364Z,10.38
2022-12-11T18:33:48.792Z,14.95
2022-12-11T18:36:25.938Z,14.02
2022-12-11T18:38:55.489Z,12.93
2022-12-11T18:41:23.151Z,15.13
2022-12-11T18:43:51.084Z,17.35
2022-12-11T18:46:21.658Z,13.00
2022-12-11T18:48:50.920Z,11.75
2022-12-11T18:51:26.915Z,17.45
2022-12-11T18:53:54.905Z,11.73
2022-12-11T18:56:23.122Z,9.00
2022-12-11T18:58:51.727Z,11.25
2022-12-11T19:01:25.468Z,13.07
2022-12-11T19:04:00.795Z,9.93
2022-12-11T19:06:33.693Z,13.32
2022-12-11T19:09:02.455Z,14.77
2022-12-11T19:11:34.915Z,12.07
2022-12-11T19:14:04.558Z,9.45
2022-12-11T19:16:36.078Z,10.45
2022-12-11T19:19:10.554Z,9.75
2022-12-11T19:21:39.745Z,10.73
2022-12-11T19:24:10.378Z,11.52
2022-12-11T19:26:39.125Z,18.70
2022-12-11T19:29:07.088Z,12.20
2022-12-11T19:31:35.235Z,10.77
2022-12-11T19:34:05.332Z,11.60
2022-12-11T19:36:37.845Z,12.25
2022-12-11T19:39:11.298Z,9.07
2022-12-11T19:41:41.422Z,9.95
2022-12-11T19:44:08.967Z,8.75
2022-12-11T19:46:37.277Z,9.88
2022-12-11T19:49:06.624Z,10.57
2022-12-11T19:51:38.609Z,8.43
2022-12-11T19:54:08.807Z,10.52
2022-12-11T19:56:36.906Z,6.45
2022-12-11T19:59:11.829Z,8.27
2022-12-11T20:01:41.060Z,7.70
2022-12-11T20:04:13.105Z,8.52
2022-12-11T20:06:44.409Z,10.15
2022-12-11T20:09:15.118Z,12.00
2022-12-11T20:11:44.897Z,9.10
2022-12-11T20:14:25.685Z,12.02
2022-12-11T20:17:13.498Z,9.30
2022-12-11T20:19:43.680Z,9.05
2022-12-11T20:22:12.043Z,11.63
2022-12-11T20:24:40.150Z,7.70
2022-12-11T20:27:07.465Z,7.43
2022-12-11T20:29:34.961Z,8.05
2022-12-11T20:32:04.076Z,10.05
2022-12-11T20:34:32.219Z,14.27
2022-12-11T20:37:00.921Z,10.50
2022-12-11T20:39:29.914Z,9.25
2022-12-11T20:41:57.858Z,7.45
2022-12-11T20:44:25.670Z,8.57
2022-12-11T20:46:53.439Z,7.65
2022-12-11T20:49:21.220Z,10.15
2022-12-11T20:51:48.504Z,10.95
2022-12-11T20:54:16.408Z,9.05
2022-12-11T20:56:44.406Z,10.15
2022-12-11T20:59:12.425Z,8.55
2022-12-11T21:01:41.091Z,8.52
2022-12-11T21:04:08.671Z,10.15
2022-12-11T21:06:38.937Z,6.13
2022-12-11T21:09:09.699Z,8.98
2022-12-11T21:11:37.252Z,12.57
2022-12-11T21:14:05.669Z,10.88
2022-12-11T21:16:34.622Z,8.18
2022-12-11T21:19:05.014Z,13.38
2022-12-11T21:21:34.296Z,13.30
2022-12-11T21:24:01.398Z,12.15
2022-12-11T21:26:28.519Z,13.20
2022-12-11T21:28:55.868Z,10.77
2022-12-11T21:31:23.678Z,11.18
2022-12-11T21:33:51.349Z,10.80
2022-12-11T21:36:18.541Z,7.93
2022-12-11T21:38:46.633Z,9.20
2022-12-11T21:41:22.887Z,10.38
2022-12-11T21:46:39.818Z,10.77
2022-12-11T21:49:08.709Z,9.13
2022-12-11T21:51:41.500Z,8.73
2022-12-11T21:54:15.722Z,12.48
2022-12-11T21:56:42.788Z,10.00
2022-12-11T21:59:09.937Z,8.50
2022-12-11T22:01:42.143Z,7.80
2022-12-11T22:04:10.699Z,6.65
2022-12-11T22:06:37.806Z,11.65
2022-12-11T22:09:05.510Z,7.88
2022-12-11T22:11:33.660Z,7.60
2022-12-11T22:14:01.417Z,9.75
2022-12-11T22:16:28.388Z,11.57
2022-12-11T22:18:55.360Z,9.48
2022-12-11T22:21:22.326Z,8.38
2022-12-11T22:23:49.420Z,8.40
2022-12-11T22:26:19.787Z,9.20
2022-12-11T22:28:47.037Z,8.82
2022-12-11T22:31:16.894Z,9.27
2022-12-11T22:33:43.895Z,11.00
2022-12-11T22:36:12.213Z,9.00
2022-12-11T22:38:39.785Z,6.35
2022-12-11T22:41:22.203Z,7.28
2022-12-11T22:43:50.210Z,7.75
2022-12-11T22:46:20.299Z,9.55
2022-12-11T22:48:47.343Z,6.93
2022-12-11T22:51:14.424Z,7.28
2022-12-11T22:53:41.404Z,8.27
2022-12-11T22:56:10.612Z,6.80
2022-12-11T22:58:37.910Z,7.70
2022-12-11T23:01:10.961Z,7.93
2022-12-11T23:03:38.629Z,6.80
2022-12-11T23:06:11.606Z,7.80
2022-12-11T23:08:39.946Z,7.93
2022-12-11T23:11:20.052Z,7.43
2022-12-11T23:13:47.440Z,7.38
2022-12-11T23:16:14.627Z,7.32
2022-12-11T23:18:41.891Z,6.38
2022-12-11T23:21:10.481Z,6.40
2022-12-11T23:23:37.513Z,7.50
2022-12-11T23:26:06.429Z,7.18
2022-12-11T23:28:33.637Z,5.68
2022-12-11T23:31:00.708Z,9.52
2022-12-11T23:33:27.797Z,9.85
2022-12-11T23:35:55.097Z,7.20
2022-12-11T23:38:22.066Z,7.13
2022-12-11T23:40:49.133Z,9.90
2022-12-11T23:43:16.169Z,7.00
2022-12-11T23:45:46.361Z,9.93
2022-12-11T23:48:14.073Z,8.75
2022-12-11T23:50:42.633Z,8.77
2022-12-11T23:53:09.703Z,10.57
2022-12-11T23:55:40.464Z,6.10
2022-12-11T23:58:07.582Z,7.80
